sensor_id;sensor_type;location;lat;lon;timestamp;P1;durP1;ratioP1;P2;durP2;ratioP2
16033;SDS011;8121;51.418;6.998;2022-12-05T00:08:16;30.30;;;12.67;;
16033;SDS011;8121;51.418;6.998;2022-12-05T00:18:18;27.40;;;11.67;;
16033;SDS011;8121;51.418;6.998;2022-12-05T00:28:21;28.10;;;13.30;;
16033;SDS011;8121;51.418;6.998;2022-12-05T00:38:22;22.40;;;12.23;;
16033;SDS011;8121;51.418;6.998;2022-12-05T00:48:25;28.37;;;13.40;;
16033;SDS011;8121;51.418;6.998;2022-12-05T00:58:27;21.40;;;11.73;;
16033;SDS011;8121;51.418;6.998;2022-12-05T01:08:32;36.67;;;13.70;;
16033;SDS011;8121;51.418;6.998;2022-12-05T01:18:34;28.60;;;13.13;;
16033;SDS011;8121;51.418;6.998;2022-12-05T01:28:37;19.70;;;10.07;;
16033;SDS011;8121;51.418;6.998;2022-12-05T01:38:39;15.23;;;8.77;;
16033;SDS011;8121;51.418;6.998;2022-12-05T01:48:43;22.67;;;9.30;;
16033;SDS011;8121;51.418;6.998;2022-12-05T01:58:45;37.90;;;13.67;;
16033;SDS011;8121;51.418;6.998;2022-12-05T02:08:49;28.83;;;10.50;;
16033;SDS011;8121;51.418;6.998;2022-12-05T02:18:55;23.10;;;9.40;;
16033;SDS011;8121;51.418;6.998;2022-12-05T02:29:08;24.80;;;11.63;;
16033;SDS011;8121;51.418;6.998;2022-12-05T02:39:31;21.00;;;9.70;;
16033;SDS011;8121;51.418;6.998;2022-12-05T02:49:38;11.63;;;7.27;;
16033;SDS011;8121;51.418;6.998;2022-12-05T02:59:42;21.87;;;11.20;;
16033;SDS011;8121;51.418;6.998;2022-12-05T03:09:45;22.10;;;9.30;;
16033;SDS011;8121;51.418;6.998;2022-12-05T03:19:53;19.27;;;10.63;;
16033;SDS011;8121;51.418;6.998;2022-12-05T03:30:00;21.83;;;12.63;;
16033;SDS011;8121;51.418;6.998;2022-12-05T03:40:07;9.83;;;5.70;;
16033;SDS011;8121;51.418;6.998;2022-12-05T03:50:14;21.23;;;9.83;;
16033;SDS011;8121;51.418;6.998;2022-12-05T04:00:24;26.07;;;10.60;;
16033;SDS011;8121;51.418;6.998;2022-12-05T04:10:27;19.17;;;10.17;;
16033;SDS011;8121;51.418;6.998;2022-12-05T04:20:48;13.47;;;8.17;;
16033;SDS011;8121;51.418;6.998;2022-12-05T04:31:09;16.13;;;7.67;;
16033;SDS011;8121;51.418;6.998;2022-12-05T04:41:19;18.27;;;10.20;;
16033;SDS011;8121;51.418;6.998;2022-12-05T04:51:24;11.60;;;7.20;;
16033;SDS011;8121;51.418;6.998;2022-12-05T05:01:29;15.93;;;7.73;;
16033;SDS011;8121;51.418;6.998;2022-12-05T05:11:33;11.40;;;6.70;;
16033;SDS011;8121;51.418;6.998;2022-12-05T05:21:37;23.13;;;11.13;;
16033;SDS011;8121;51.418;6.998;2022-12-05T05:31:40;11.93;;;6.77;;
16033;SDS011;8121;51.418;6.998;2022-12-05T05:41:44;10.57;;;5.77;;
16033;SDS011;8121;51.418;6.998;2022-12-05T05:51:46;15.53;;;8.20;;
16033;SDS011;8121;51.418;6.998;2022-12-05T06:01:48;13.40;;;7.67;;
16033;SDS011;8121;51.418;6.998;2022-12-05T06:11:50;14.70;;;8.00;;
16033;SDS011;8121;51.418;6.998;2022-12-05T06:21:54;15.47;;;9.33;;
16033;SDS011;8121;51.418;6.998;2022-12-05T06:31:56;13.27;;;7.20;;
16033;SDS011;8121;51.418;6.998;2022-12-05T06:41:59;23.93;;;9.93;;
16033;SDS011;8121;51.418;6.998;2022-12-05T06:52:02;19.50;;;9.13;;
16033;SDS011;8121;51.418;6.998;2022-12-05T07:02:06;10.93;;;8.13;;
16033;SDS011;8121;51.418;6.998;2022-12-05T07:12:08;13.13;;;7.33;;
16033;SDS011;8121;51.418;6.998;2022-12-05T07:22:11;19.90;;;9.83;;
16033;SDS011;8121;51.418;6.998;2022-12-05T07:32:13;21.33;;;12.03;;
16033;SDS011;8121;51.418;6.998;2022-12-05T07:42:17;14.07;;;9.30;;
16033;SDS011;8121;51.418;6.998;2022-12-05T07:52:18;20.37;;;11.70;;
16033;SDS011;8121;51.418;6.998;2022-12-05T08:02:21;11.13;;;7.20;;
16033;SDS011;8121;51.418;6.998;2022-12-05T08:12:23;13.83;;;7.73;;
16033;SDS011;8121;51.418;6.998;2022-12-05T08:22:26;15.10;;;9.13;;
16033;SDS011;8121;51.418;6.998;2022-12-05T08:32:27;9.30;;;6.10;;
16033;SDS011;8121;51.418;6.998;2022-12-05T08:42:30;6.13;;;4.77;;
16033;SDS011;8121;51.418;6.998;2022-12-05T08:52:32;6.07;;;4.03;;
16033;SDS011;8121;51.418;6.998;2022-12-05T09:02:35;5.70;;;3.90;;
16033;SDS011;8121;51.418;6.998;2022-12-05T09:12:36;10.70;;;7.70;;
16033;SDS011;8121;51.418;6.998;2022-12-05T09:22:40;6.93;;;4.70;;
16033;SDS011;8121;51.418;6.998;2022-12-05T09:32:41;7.57;;;5.90;;
16033;SDS011;8121;51.418;6.998;2022-12-05T09:42:49;5.57;;;4.70;;
16033;SDS011;8121;51.418;6.998;2022-12-05T09:52:59;9.77;;;5.67;;
16033;SDS011;8121;51.418;6.998;2022-12-05T10:03:06;9.87;;;5.90;;
16033;SDS011;8121;51.418;6.998;2022-12-05T10:13:15;7.37;;;5.17;;
16033;SDS011;8121;51.418;6.998;2022-12-05T10:23:25;8.03;;;5.33;;
16033;SDS011;8121;51.418;6.998;2022-12-05T10:33:30;6.20;;;4.40;;
16033;SDS011;8121;51.418;6.998;2022-12-05T10:43:38;3.83;;;3.47;;
16033;SDS011;8121;51.418;6.998;2022-12-05T10:53:42;4.87;;;3.87;;
16033;SDS011;8121;51.418;6.998;2022-12-05T11:03:46;3.33;;;3.13;;
16033;SDS011;8121;51.418;6.998;2022-12-05T11:13:57;8.03;;;6.47;;
16033;SDS011;8121;51.418;6.998;2022-12-05T11:24:05;11.70;;;7.20;;
16033;SDS011;8121;51.418;6.998;2022-12-05T11:34:21;11.13;;;7.03;;
16033;SDS011;8121;51.418;6.998;2022-12-05T11:44:33;14.87;;;8.70;;
16033;SDS011;8121;51.418;6.998;2022-12-05T11:54:54;12.83;;;9.00;;
16033;SDS011;8121;51.418;6.998;2022-12-05T12:04:59;15.80;;;8.60;;
16033;SDS011;8121;51.418;6.998;2022-12-05T12:15:08;8.93;;;6.83;;
16033;SDS011;8121;51.418;6.998;2022-12-05T12:25:26;16.83;;;9.93;;
16033;SDS011;8121;51.418;6.998;2022-12-05T12:35:35;11.60;;;7.20;;
16033;SDS011;8121;51.418;6.998;2022-12-05T12:45:58;11.63;;;7.13;;
16033;SDS011;8121;51.418;6.998;2022-12-05T12:56:12;7.70;;;6.07;;
16033;SDS011;8121;51.418;6.998;2022-12-05T13:06:25;5.63;;;4.90;;
16033;SDS011;8121;51.418;6.998;2022-12-05T13:16:30;8.77;;;5.27;;
16033;SDS011;8121;51.418;6.998;2022-12-05T13:26:35;5.90;;;5.10;;
16033;SDS011;8121;51.418;6.998;2022-12-05T13:36:45;3.47;;;3.17;;
16033;SDS011;8121;51.418;6.998;2022-12-05T13:47:06;4.47;;;3.40;;
16033;SDS011;8121;51.418;6.998;2022-12-05T13:57:44;14.07;;;8.30;;
16033;SDS011;8121;51.418;6.998;2022-12-05T14:07:49;15.60;;;9.93;;
16033;SDS011;8121;51.418;6.998;2022-12-05T14:17:54;11.90;;;6.60;;
16033;SDS011;8121;51.418;6.998;2022-12-05T14:28:00;13.93;;;8.67;;
16033;SDS011;8121;51.418;6.998;2022-12-05T14:38:03;10.23;;;7.40;;
16033;SDS011;8121;51.418;6.998;2022-12-05T14:48:21;4.43;;;4.03;;
16033;SDS011;8121;51.418;6.998;2022-12-05T14:58:31;5.20;;;4.37;;
16033;SDS011;8121;51.418;6.998;2022-12-05T15:08:39;5.67;;;4.23;;
16033;SDS011;8121;51.418;6.998;2022-12-05T15:18:46;3.60;;;3.33;;
16033;SDS011;8121;51.418;6.998;2022-12-05T15:29:03;2.80;;;2.60;;
16033;SDS011;8121;51.418;6.998;2022-12-05T15:39:15;3.03;;;2.83;;
16033;SDS011;8121;51.418;6.998;2022-12-05T15:49:24;2.10;;;1.87;;
16033;SDS011;8121;51.418;6.998;2022-12-05T15:59:30;3.07;;;2.87;;
16033;SDS011;8121;51.418;6.998;2022-12-05T16:09:37;2.70;;;2.50;;
16033;SDS011;8121;51.418;6.998;2022-12-05T16:19:42;3.00;;;2.80;;
16033;SDS011;8121;51.418;6.998;2022-12-05T16:30:04;3.20;;;3.00;;
16033;SDS011;8121;51.418;6.998;2022-12-05T16:40:18;5.63;;;3.70;;
16033;SDS011;8121;51.418;6.998;2022-12-05T16:50:23;3.27;;;3.07;;
16033;SDS011;8121;51.418;6.998;2022-12-05T17:00:29;2.13;;;2.03;;
16033;SDS011;8121;51.418;6.998;2022-12-05T17:10:33;2.27;;;2.17;;
16033;SDS011;8121;51.418;6.998;2022-12-05T17:20:35;3.00;;;2.80;;
16033;SDS011;8121;51.418;6.998;2022-12-05T17:30:40;3.60;;;2.60;;
16033;SDS011;8121;51.418;6.998;2022-12-05T17:40:43;2.30;;;2.10;;
16033;SDS011;8121;51.418;6.998;2022-12-05T18:12:11;4.47;;;2.90;;
16033;SDS011;8121;51.418;6.998;2022-12-05T18:22:24;3.03;;;2.83;;
16033;SDS011;8121;51.418;6.998;2022-12-05T18:32:29;3.20;;;2.63;;
16033;SDS011;8121;51.418;6.998;2022-12-05T18:42:32;3.97;;;3.57;;
16033;SDS011;8121;51.418;6.998;2022-12-05T18:52:36;3.53;;;3.23;;
16033;SDS011;8121;51.418;6.998;2022-12-05T19:02:38;2.40;;;2.20;;
16033;SDS011;8121;51.418;6.998;2022-12-05T19:12:42;3.47;;;3.00;;
16033;SDS011;8121;51.418;6.998;2022-12-05T19:22:45;4.40;;;3.70;;
16033;SDS011;8121;51.418;6.998;2022-12-05T19:32:49;3.03;;;2.83;;
16033;SDS011;8121;51.418;6.998;2022-12-05T19:42:51;4.33;;;3.90;;
16033;SDS011;8121;51.418;6.998;2022-12-05T19:52:54;7.57;;;4.80;;
16033;SDS011;8121;51.418;6.998;2022-12-05T20:02:57;3.20;;;2.93;;
16033;SDS011;8121;51.418;6.998;2022-12-05T20:12:59;3.93;;;3.53;;
16033;SDS011;8121;51.418;6.998;2022-12-05T20:23:01;4.37;;;3.97;;
16033;SDS011;8121;51.418;6.998;2022-12-05T20:33:04;7.10;;;5.00;;
16033;SDS011;8121;51.418;6.998;2022-12-05T20:43:06;5.17;;;4.67;;
16033;SDS011;8121;51.418;6.998;2022-12-05T20:53:09;3.80;;;3.50;;
16033;SDS011;8121;51.418;6.998;2022-12-05T21:03:10;3.90;;;3.50;;
16033;SDS011;8121;51.418;6.998;2022-12-05T21:13:14;4.70;;;4.03;;
16033;SDS011;8121;51.418;6.998;2022-12-05T21:23:15;8.93;;;5.70;;
16033;SDS011;8121;51.418;6.998;2022-12-05T21:33:18;8.20;;;5.63;;
16033;SDS011;8121;51.418;6.998;2022-12-05T21:43:20;4.77;;;3.70;;
16033;SDS011;8121;51.418;6.998;2022-12-05T21:53:23;3.23;;;2.93;;
16033;SDS011;8121;51.418;6.998;2022-12-05T22:03:25;5.33;;;4.20;;
16033;SDS011;8121;51.418;6.998;2022-12-05T22:13:28;5.17;;;4.27;;
16033;SDS011;8121;51.418;6.998;2022-12-05T22:23:30;8.10;;;5.57;;
16033;SDS011;8121;51.418;6.998;2022-12-05T22:33:34;8.50;;;5.30;;
16033;SDS011;8121;51.418;6.998;2022-12-05T22:43:36;8.27;;;5.37;;
16033;SDS011;8121;51.418;6.998;2022-12-05T22:53:39;5.93;;;3.53;;
16033;SDS011;8121;51.418;6.998;2022-12-05T23:03:42;3.97;;;3.40;;
16033;SDS011;8121;51.418;6.998;2022-12-05T23:13:46;4.73;;;4.10;;
16033;SDS011;8121;51.418;6.998;2022-12-05T23:23:49;8.90;;;5.57;;
16033;SDS011;8121;51.418;6.998;2022-12-05T23:33:53;4.03;;;3.50;;
16033;SDS011;8121;51.418;6.998;2022-12-05T23:43:55;9.20;;;5.17;;
16033;SDS011;8121;51.418;6.998;2022-12-05T23:53:59;16.50;;;6.47;;
